ARG1500 SABE-SACO
Flight info
| Callsign | ARG1500 |
|---|---|
| Flight time | 1h 5m |
| Altitude | 36000 |
| Route | ATOVO4B ATOVO UW5 ASISA ASISA1U |
| Aircraft | B38M/M-SDE1FGHILORVWXY/HB1 |
Departure
| Time | 2026-05-09 12:57 |
|---|---|
| Airport | Aeroparque Jorge Newbery (SABE) |
Arrival
| Time | 2026-05-09 14:02 |
|---|---|
| Airport | Ingeniero Aeronáutico Ambrosio L.V. Taravella International Airport (SACO) |
| Time | Latitude | Longitude | Altitude | Speed | Heading |
|---|---|---|---|---|---|
| 2026-05-09 12:22 | -34.55830 | -58.41214 | 29 ft | 0 kts | 41° |
| 2026-05-09 12:46 | -34.55844 | -58.41229 | 29 ft | 3 kts | 41° |
| 2026-05-09 12:47 | -34.55858 | -58.41243 | 29 ft | 3 kts | 41° |
| 2026-05-09 12:47 | -34.55869 | -58.41255 | 29 ft | 0 kts | 41° |
| 2026-05-09 12:51 | -34.55869 | -58.41254 | 29 ft | 0 kts | 57° |
| 2026-05-09 12:52 | -34.55870 | -58.41236 | 29 ft | 4 kts | 104° |
| 2026-05-09 12:52 | -34.55902 | -58.41200 | 29 ft | 11 kts | 156° |
| 2026-05-09 12:52 | -34.55957 | -58.41183 | 29 ft | 7 kts | 169° |
| 2026-05-09 12:52 | -34.55968 | -58.41180 | 29 ft | 1 kts | 169° |
| 2026-05-09 12:53 | -34.55972 | -58.41179 | 29 ft | 0 kts | 169° |
| 2026-05-09 12:53 | -34.55984 | -58.41174 | 29 ft | 7 kts | 155° |
| 2026-05-09 12:53 | -34.56040 | -58.41099 | 29 ft | 15 kts | 121° |
| 2026-05-09 12:54 | -34.56093 | -58.41011 | 30 ft | 12 kts | 126° |
| 2026-05-09 12:54 | -34.56138 | -58.40924 | 29 ft | 13 kts | 120° |
| 2026-05-09 12:54 | -34.56203 | -58.40815 | 29 ft | 19 kts | 134° |
| 2026-05-09 12:54 | -34.56261 | -58.40746 | 29 ft | 8 kts | 136° |
| 2026-05-09 12:55 | -34.56301 | -58.40700 | 29 ft | 8 kts | 136° |
| 2026-05-09 12:55 | -34.56319 | -58.40679 | 29 ft | 0 kts | 138° |
| 2026-05-09 12:56 | -34.56325 | -58.40673 | 29 ft | 4 kts | 138° |
| 2026-05-09 12:56 | -34.56390 | -58.40641 | 27 ft | 11 kts | 182° |
| 2026-05-09 12:56 | -34.56412 | -58.40657 | 27 ft | 4 kts | 249° |
| 2026-05-09 12:56 | -34.56400 | -58.40729 | 28 ft | 11 kts | 302° |
| 2026-05-09 12:57 | -34.56329 | -58.40855 | 29 ft | 45 kts | 304° |
| 2026-05-09 12:57 | -34.55986 | -58.41467 | 28 ft | 127 kts | 304° |
| 2026-05-09 12:57 | -34.55388 | -58.42575 | 234 ft | 176 kts | 304° |
| 2026-05-09 12:57 | -34.54651 | -58.43804 | 716 ft | 181 kts | 302° |
| 2026-05-09 12:58 | -34.53836 | -58.44948 | 982 ft | 180 kts | 310° |
| 2026-05-09 12:58 | -34.52674 | -58.45670 | 1546 ft | 205 kts | 346° |
| 2026-05-09 12:58 | -34.51219 | -58.45239 | 2092 ft | 231 kts | 33° |
| 2026-05-09 12:58 | -34.49988 | -58.43921 | 2692 ft | 250 kts | 44° |
| 2026-05-09 12:59 | -34.48592 | -58.42518 | 3225 ft | 269 kts | 39° |
| 2026-05-09 12:59 | -34.47055 | -58.41144 | 3688 ft | 278 kts | 37° |
| 2026-05-09 12:59 | -34.45436 | -58.39806 | 4451 ft | 281 kts | 35° |
| 2026-05-09 12:59 | -34.43770 | -58.38499 | 5525 ft | 291 kts | 33° |
| 2026-05-09 13:00 | -34.42029 | -58.37164 | 6515 ft | 297 kts | 32° |
| 2026-05-09 13:00 | -34.40177 | -58.36047 | 7510 ft | 301 kts | 12° |
| 2026-05-09 13:00 | -34.38148 | -58.35990 | 8554 ft | 295 kts | 343° |
| 2026-05-09 13:00 | -34.36284 | -58.36964 | 9464 ft | 292 kts | 321° |
| 2026-05-09 13:01 | -34.34585 | -58.38353 | 10393 ft | 298 kts | 321° |
| 2026-05-09 13:01 | -34.32801 | -58.39775 | 10934 ft | 317 kts | 321° |
| 2026-05-09 13:01 | -34.30901 | -58.41305 | 11392 ft | 337 kts | 321° |
| 2026-05-09 13:01 | -34.28919 | -58.42915 | 11987 ft | 350 kts | 321° |
| 2026-05-09 13:02 | -34.26884 | -58.44575 | 12875 ft | 352 kts | 321° |
| 2026-05-09 13:02 | -34.24838 | -58.46250 | 13724 ft | 357 kts | 321° |
| 2026-05-09 13:02 | -34.22766 | -58.47949 | 14512 ft | 361 kts | 321° |
| 2026-05-09 13:02 | -34.22763 | -58.47951 | 14515 ft | 361 kts | 321° |
| 2026-05-09 13:03 | -34.22090 | -58.48503 | 14738 ft | 363 kts | 321° |
| 2026-05-09 13:04 | -34.19980 | -58.50232 | 15335 ft | 371 kts | 321° |
| 2026-05-09 13:04 | -34.17830 | -58.51992 | 16050 ft | 375 kts | 322° |
| 2026-05-09 13:04 | -34.15705 | -58.53865 | 16600 ft | 381 kts | 313° |
| 2026-05-09 13:04 | -34.15061 | -58.54675 | 16800 ft | 378 kts | 304° |
| 2026-05-09 13:05 | -34.13877 | -58.57009 | 17447 ft | 372 kts | 288° |
| 2026-05-09 13:05 | -34.13240 | -58.60020 | 17936 ft | 372 kts | 270° |
| 2026-05-09 13:06 | -34.13319 | -58.63142 | 18432 ft | 374 kts | 260° |
| 2026-05-09 13:06 | -34.13574 | -58.66288 | 18949 ft | 379 kts | 259° |
| 2026-05-09 13:06 | -34.13876 | -58.69468 | 19515 ft | 382 kts | 258° |
| 2026-05-09 13:06 | -34.14198 | -58.72625 | 20058 ft | 386 kts | 258° |
| 2026-05-09 13:07 | -34.14541 | -58.75852 | 20626 ft | 390 kts | 258° |
| 2026-05-09 13:07 | -34.14898 | -58.79118 | 21193 ft | 393 kts | 258° |
| 2026-05-09 13:07 | -34.15263 | -58.82402 | 21741 ft | 397 kts | 258° |
| 2026-05-09 13:07 | -34.15633 | -58.85724 | 22270 ft | 401 kts | 258° |
| 2026-05-09 13:08 | -34.16006 | -58.89081 | 22784 ft | 405 kts | 258° |
| 2026-05-09 13:08 | -34.16380 | -58.92464 | 23303 ft | 409 kts | 258° |
| 2026-05-09 13:08 | -34.16692 | -58.95892 | 23768 ft | 415 kts | 263° |
| 2026-05-09 13:08 | -34.16487 | -58.98677 | 24139 ft | 425 kts | 281° |
| 2026-05-09 13:09 | -34.15643 | -59.01241 | 24529 ft | 433 kts | 297° |
| 2026-05-09 13:09 | -34.13779 | -59.04135 | 24969 ft | 441 kts | 311° |
| 2026-05-09 13:09 | -34.11665 | -59.06833 | 25376 ft | 443 kts | 308° |
| 2026-05-09 13:10 | -34.09745 | -59.09680 | 25811 ft | 444 kts | 306° |
| 2026-05-09 13:10 | -34.07790 | -59.12582 | 26240 ft | 446 kts | 306° |
| 2026-05-09 13:10 | -34.05808 | -59.15484 | 26670 ft | 449 kts | 307° |
| 2026-05-09 13:10 | -34.03806 | -59.18391 | 27098 ft | 451 kts | 307° |
| 2026-05-09 13:11 | -34.01786 | -59.21307 | 27517 ft | 453 kts | 307° |
| 2026-05-09 13:11 | -33.99753 | -59.24236 | 27916 ft | 456 kts | 307° |
| 2026-05-09 13:11 | -33.97713 | -59.27176 | 28308 ft | 458 kts | 307° |
| 2026-05-09 13:11 | -33.95684 | -59.30096 | 28697 ft | 461 kts | 307° |
| 2026-05-09 13:12 | -33.93617 | -59.33068 | 29074 ft | 463 kts | 307° |
| 2026-05-09 13:12 | -33.91542 | -59.36049 | 29448 ft | 465 kts | 307° |
| 2026-05-09 13:12 | -33.89457 | -59.39042 | 29817 ft | 468 kts | 307° |
| 2026-05-09 13:12 | -33.87359 | -59.42052 | 30169 ft | 470 kts | 307° |
| 2026-05-09 13:13 | -33.85247 | -59.45079 | 30462 ft | 472 kts | 307° |
| 2026-05-09 13:13 | -33.83128 | -59.48113 | 30780 ft | 474 kts | 307° |
| 2026-05-09 13:13 | -33.80997 | -59.51163 | 31084 ft | 476 kts | 307° |
| 2026-05-09 13:13 | -33.78861 | -59.54217 | 31380 ft | 478 kts | 307° |
| 2026-05-09 13:14 | -33.76747 | -59.57237 | 31696 ft | 479 kts | 308° |
| 2026-05-09 13:14 | -33.74594 | -59.60310 | 32031 ft | 480 kts | 308° |
| 2026-05-09 13:16 | -33.59633 | -59.81563 | 34764 ft | 472 kts | 308° |
| 2026-05-09 13:16 | -33.57511 | -59.84567 | 35123 ft | 470 kts | 308° |
| 2026-05-09 13:16 | -33.55397 | -59.87557 | 35495 ft | 468 kts | 308° |
| 2026-05-09 13:16 | -33.53292 | -59.90531 | 35863 ft | 466 kts | 308° |
| 2026-05-09 13:17 | -33.51224 | -59.93450 | 36129 ft | 466 kts | 307° |
| 2026-05-09 13:17 | -33.47047 | -59.99339 | 36159 ft | 461 kts | 307° |
| 2026-05-09 13:18 | -33.42888 | -60.05194 | 36163 ft | 461 kts | 307° |
| 2026-05-09 13:18 | -33.38722 | -60.11050 | 36165 ft | 461 kts | 308° |
| 2026-05-09 13:19 | -33.34586 | -60.16854 | 36171 ft | 461 kts | 308° |
| 2026-05-09 13:19 | -33.30418 | -60.22694 | 36175 ft | 461 kts | 308° |
| 2026-05-09 13:20 | -33.26243 | -60.28533 | 36187 ft | 462 kts | 308° |
| 2026-05-09 13:20 | -33.22067 | -60.34366 | 36193 ft | 462 kts | 308° |
| 2026-05-09 13:21 | -33.17883 | -60.40199 | 36202 ft | 462 kts | 308° |
| 2026-05-09 13:21 | -33.13728 | -60.45983 | 36201 ft | 462 kts | 308° |
| 2026-05-09 13:22 | -33.09539 | -60.51805 | 36199 ft | 462 kts | 308° |
| 2026-05-09 13:22 | -33.05349 | -60.57618 | 36201 ft | 462 kts | 308° |
| 2026-05-09 13:23 | -32.94857 | -60.72139 | 36181 ft | 462 kts | 308° |
| 2026-05-09 13:24 | -32.90676 | -60.77957 | 36181 ft | 461 kts | 304° |
| 2026-05-09 13:24 | -32.87481 | -60.84486 | 36183 ft | 457 kts | 296° |
| 2026-05-09 13:25 | -32.84217 | -60.90959 | 36193 ft | 458 kts | 298° |
| 2026-05-09 13:26 | -32.79336 | -61.00743 | 36213 ft | 458 kts | 297° |
| 2026-05-09 13:26 | -32.76095 | -61.07276 | 36232 ft | 458 kts | 297° |
| 2026-05-09 13:27 | -32.72850 | -61.13807 | 36250 ft | 458 kts | 297° |
| 2026-05-09 13:27 | -32.69627 | -61.20283 | 36260 ft | 458 kts | 297° |
| 2026-05-09 13:28 | -32.66377 | -61.26800 | 36262 ft | 458 kts | 297° |
| 2026-05-09 13:28 | -32.63126 | -61.33306 | 36268 ft | 458 kts | 297° |
| 2026-05-09 13:29 | -32.59869 | -61.39815 | 36270 ft | 458 kts | 297° |
| 2026-05-09 13:29 | -32.56612 | -61.46312 | 36276 ft | 458 kts | 297° |
| 2026-05-09 13:30 | -32.53348 | -61.52813 | 36280 ft | 458 kts | 297° |
| 2026-05-09 13:30 | -32.50081 | -61.59306 | 36284 ft | 458 kts | 297° |
| 2026-05-09 13:31 | -32.46834 | -61.65751 | 36287 ft | 459 kts | 297° |
| 2026-05-09 13:31 | -32.43554 | -61.72248 | 36292 ft | 459 kts | 297° |
| 2026-05-09 13:32 | -32.40272 | -61.78737 | 36294 ft | 459 kts | 297° |
| 2026-05-09 13:32 | -32.35368 | -61.88419 | 36300 ft | 459 kts | 297° |
| 2026-05-09 13:33 | -32.32082 | -61.94890 | 36299 ft | 459 kts | 297° |
| 2026-05-09 13:33 | -32.28793 | -62.01361 | 36300 ft | 459 kts | 297° |
| 2026-05-09 13:34 | -32.25503 | -62.07823 | 36305 ft | 459 kts | 297° |
| 2026-05-09 13:34 | -32.22207 | -62.14285 | 36303 ft | 459 kts | 297° |
| 2026-05-09 13:35 | -32.18909 | -62.20740 | 36310 ft | 459 kts | 297° |
| 2026-05-09 13:35 | -32.15630 | -62.27147 | 36317 ft | 459 kts | 297° |
| 2026-05-09 13:36 | -32.12320 | -62.33604 | 36317 ft | 459 kts | 297° |
| 2026-05-09 13:36 | -32.09008 | -62.40054 | 36313 ft | 459 kts | 297° |
| 2026-05-09 13:37 | -32.06254 | -62.45407 | 36208 ft | 457 kts | 297° |
| 2026-05-09 13:37 | -32.04599 | -62.48621 | 35228 ft | 463 kts | 297° |
| 2026-05-09 13:37 | -32.02903 | -62.51912 | 34149 ft | 473 kts | 298° |
| 2026-05-09 13:38 | -32.01204 | -62.55205 | 33519 ft | 469 kts | 298° |
| 2026-05-09 13:38 | -31.99502 | -62.58503 | 32598 ft | 472 kts | 298° |
| 2026-05-09 13:38 | -31.97791 | -62.61814 | 31819 ft | 473 kts | 298° |
| 2026-05-09 13:38 | -31.96105 | -62.65074 | 31285 ft | 468 kts | 298° |
| 2026-05-09 13:39 | -31.94419 | -62.68331 | 30764 ft | 464 kts | 298° |
| 2026-05-09 13:39 | -31.92742 | -62.71568 | 30101 ft | 462 kts | 298° |
| 2026-05-09 13:39 | -31.91073 | -62.74789 | 29442 ft | 459 kts | 298° |
| 2026-05-09 13:39 | -31.89411 | -62.77991 | 28859 ft | 455 kts | 298° |
| 2026-05-09 13:40 | -31.87769 | -62.81153 | 28286 ft | 451 kts | 298° |
| 2026-05-09 13:40 | -31.86136 | -62.84295 | 27709 ft | 448 kts | 298° |
| 2026-05-09 13:40 | -31.84514 | -62.87412 | 27134 ft | 445 kts | 298° |
| 2026-05-09 13:40 | -31.82896 | -62.90519 | 26566 ft | 442 kts | 298° |
| 2026-05-09 13:41 | -31.81294 | -62.93595 | 26001 ft | 440 kts | 298° |
| 2026-05-09 13:41 | -31.79696 | -62.96658 | 25448 ft | 437 kts | 298° |
| 2026-05-09 13:41 | -31.78108 | -62.99700 | 24890 ft | 435 kts | 298° |
| 2026-05-09 13:41 | -31.76548 | -63.02687 | 24347 ft | 434 kts | 298° |
| 2026-05-09 13:42 | -31.74968 | -63.05710 | 23775 ft | 432 kts | 298° |
| 2026-05-09 13:42 | -31.73397 | -63.08714 | 23142 ft | 430 kts | 298° |
| 2026-05-09 13:42 | -31.71837 | -63.11694 | 22594 ft | 426 kts | 298° |
| 2026-05-09 13:42 | -31.70287 | -63.14653 | 22059 ft | 422 kts | 298° |
| 2026-05-09 13:43 | -31.68758 | -63.17570 | 21556 ft | 418 kts | 298° |
| 2026-05-09 13:43 | -31.67238 | -63.20467 | 21049 ft | 414 kts | 298° |
| 2026-05-09 13:43 | -31.65577 | -63.23178 | 20464 ft | 416 kts | 306° |
| 2026-05-09 13:43 | -31.63724 | -63.25818 | 19978 ft | 411 kts | 304° |
| 2026-05-09 13:44 | -31.61980 | -63.28446 | 19511 ft | 407 kts | 303° |
| 2026-05-09 13:44 | -31.60278 | -63.31030 | 19046 ft | 403 kts | 303° |
| 2026-05-09 13:44 | -31.58570 | -63.33632 | 18563 ft | 400 kts | 303° |
| 2026-05-09 13:44 | -31.56878 | -63.36212 | 18049 ft | 396 kts | 303° |
| 2026-05-09 13:45 | -31.55204 | -63.38760 | 17579 ft | 392 kts | 303° |
| 2026-05-09 13:45 | -31.53552 | -63.41275 | 17136 ft | 387 kts | 303° |
| 2026-05-09 13:45 | -31.51918 | -63.43760 | 16691 ft | 382 kts | 303° |
| 2026-05-09 13:45 | -31.50326 | -63.46179 | 16265 ft | 378 kts | 303° |
| 2026-05-09 13:46 | -31.48731 | -63.48601 | 15840 ft | 374 kts | 303° |
| 2026-05-09 13:46 | -31.47150 | -63.51001 | 15417 ft | 370 kts | 302° |
| 2026-05-09 13:46 | -31.45587 | -63.53362 | 14973 ft | 360 kts | 303° |
| 2026-05-09 13:46 | -31.44076 | -63.55630 | 14552 ft | 346 kts | 302° |
| 2026-05-09 13:47 | -31.42625 | -63.57810 | 14193 ft | 332 kts | 302° |
| 2026-05-09 13:47 | -31.41228 | -63.59909 | 13792 ft | 321 kts | 302° |
| 2026-05-09 13:47 | -31.39847 | -63.61990 | 13382 ft | 329 kts | 302° |
| 2026-05-09 13:47 | -31.38444 | -63.64102 | 12938 ft | 335 kts | 302° |
| 2026-05-09 13:48 | -31.37011 | -63.66255 | 12538 ft | 335 kts | 302° |
| 2026-05-09 13:48 | -31.35576 | -63.68409 | 12173 ft | 334 kts | 302° |
| 2026-05-09 13:48 | -31.34154 | -63.70542 | 11790 ft | 332 kts | 302° |
| 2026-05-09 13:48 | -31.32735 | -63.72670 | 11435 ft | 331 kts | 302° |
| 2026-05-09 13:49 | -31.31354 | -63.74736 | 11259 ft | 313 kts | 302° |
| 2026-05-09 13:49 | -31.30054 | -63.76677 | 11117 ft | 293 kts | 302° |
| 2026-05-09 13:49 | -31.28828 | -63.78511 | 10866 ft | 280 kts | 302° |
| 2026-05-09 13:49 | -31.27651 | -63.80272 | 10606 ft | 268 kts | 301° |
| 2026-05-09 13:50 | -31.26532 | -63.81944 | 10433 ft | 254 kts | 301° |
| 2026-05-09 13:50 | -31.25474 | -63.83527 | 10297 ft | 252 kts | 301° |
| 2026-05-09 13:50 | -31.24365 | -63.85193 | 10148 ft | 264 kts | 301° |
| 2026-05-09 13:50 | -31.23221 | -63.86907 | 9946 ft | 270 kts | 301° |
| 2026-05-09 13:51 | -31.22060 | -63.88641 | 9637 ft | 270 kts | 302° |
| 2026-05-09 13:51 | -31.20903 | -63.90368 | 9350 ft | 269 kts | 302° |
| 2026-05-09 13:51 | -31.19749 | -63.92091 | 9046 ft | 269 kts | 302° |
| 2026-05-09 13:51 | -31.18599 | -63.93807 | 8740 ft | 267 kts | 302° |
| 2026-05-09 13:52 | -31.17464 | -63.95499 | 8471 ft | 262 kts | 302° |
| 2026-05-09 13:52 | -31.16347 | -63.97162 | 8206 ft | 258 kts | 302° |
| 2026-05-09 13:52 | -31.15264 | -63.98775 | 7937 ft | 254 kts | 303° |
| 2026-05-09 13:52 | -31.14184 | -64.00384 | 7669 ft | 249 kts | 303° |
| 2026-05-09 13:53 | -31.13124 | -64.01961 | 7421 ft | 245 kts | 303° |
| 2026-05-09 13:53 | -31.12077 | -64.03520 | 7189 ft | 240 kts | 303° |
| 2026-05-09 13:53 | -31.11080 | -64.05000 | 7070 ft | 219 kts | 304° |
| 2026-05-09 13:53 | -31.10187 | -64.06319 | 6952 ft | 195 kts | 303° |
| 2026-05-09 13:54 | -31.09398 | -64.07483 | 6823 ft | 171 kts | 303° |
| 2026-05-09 13:54 | -31.08706 | -64.08513 | 6693 ft | 154 kts | 301° |
| 2026-05-09 13:54 | -31.08290 | -64.09633 | 6511 ft | 154 kts | 270° |
| 2026-05-09 13:54 | -31.08315 | -64.10917 | 6485 ft | 163 kts | 267° |
| 2026-05-09 13:55 | -31.08288 | -64.12270 | 6341 ft | 169 kts | 269° |
| 2026-05-09 13:55 | -31.08266 | -64.13640 | 5954 ft | 166 kts | 266° |
| 2026-05-09 13:55 | -31.08300 | -64.14958 | 5594 ft | 160 kts | 263° |
| 2026-05-09 13:55 | -31.08365 | -64.16252 | 5358 ft | 160 kts | 262° |
| 2026-05-09 13:56 | -31.08430 | -64.17553 | 5116 ft | 161 kts | 262° |
| 2026-05-09 13:56 | -31.08498 | -64.18861 | 4858 ft | 162 kts | 262° |
| 2026-05-09 13:56 | -31.08817 | -64.20082 | 4636 ft | 155 kts | 229° |
| 2026-05-09 13:56 | -31.09660 | -64.20748 | 4504 ft | 145 kts | 198° |
| 2026-05-09 13:57 | -31.10657 | -64.20914 | 4403 ft | 145 kts | 185° |
| 2026-05-09 13:57 | -31.11662 | -64.20969 | 4304 ft | 144 kts | 183° |
| 2026-05-09 13:57 | -31.12661 | -64.21005 | 4180 ft | 143 kts | 182° |
| 2026-05-09 13:57 | -31.13636 | -64.21023 | 4072 ft | 140 kts | 182° |
| 2026-05-09 13:58 | -31.14594 | -64.21029 | 3936 ft | 137 kts | 181° |
| 2026-05-09 13:58 | -31.15547 | -64.21029 | 3860 ft | 137 kts | 181° |
| 2026-05-09 13:58 | -31.16504 | -64.21025 | 3889 ft | 137 kts | 181° |
| 2026-05-09 13:58 | -31.17450 | -64.21016 | 3904 ft | 136 kts | 181° |
| 2026-05-09 13:59 | -31.18398 | -64.21005 | 3824 ft | 135 kts | 180° |
| 2026-05-09 13:59 | -31.19328 | -64.20995 | 3663 ft | 132 kts | 180° |
| 2026-05-09 13:59 | -31.20245 | -64.20983 | 3504 ft | 131 kts | 180° |
| 2026-05-09 13:59 | -31.21157 | -64.20972 | 3331 ft | 131 kts | 180° |
| 2026-05-09 14:00 | -31.22066 | -64.20959 | 3171 ft | 131 kts | 179° |
| 2026-05-09 14:00 | -31.22360 | -64.20955 | 3112 ft | 131 kts | 179° |
| 2026-05-09 14:00 | -31.23885 | -64.20934 | 2816 ft | 130 kts | 179° |
| 2026-05-09 14:00 | -31.24777 | -64.20922 | 2623 ft | 130 kts | 180° |
| 2026-05-09 14:01 | -31.25679 | -64.20909 | 2438 ft | 130 kts | 180° |
| 2026-05-09 14:01 | -31.26579 | -64.20897 | 2265 ft | 129 kts | 180° |
| 2026-05-09 14:01 | -31.27466 | -64.20883 | 2085 ft | 127 kts | 180° |
| 2026-05-09 14:01 | -31.28351 | -64.20855 | 1878 ft | 128 kts | 176° |
| 2026-05-09 14:02 | -31.29250 | -64.20850 | 1731 ft | 131 kts | 178° |
| 2026-05-09 14:02 | -31.30142 | -64.20843 | 1628 ft | 118 kts | 180° |
| 2026-05-09 14:02 | -31.30765 | -64.20833 | 1615 ft | 56 kts | 179° |
| 2026-05-09 14:02 | -31.31110 | -64.20826 | 1618 ft | 49 kts | 179° |
| 2026-05-09 14:03 | -31.31443 | -64.20819 | 1621 ft | 37 kts | 180° |
| 2026-05-09 14:03 | -31.31668 | -64.20856 | 1618 ft | 20 kts | 202° |
| 2026-05-09 14:03 | -31.31729 | -64.20894 | 1616 ft | 0 kts | 211° |
| 2026-05-09 14:04 | -31.31730 | -64.20894 | 1616 ft | 1 kts | 211° |
| 2026-05-09 14:05 | -31.31750 | -64.20909 | 1615 ft | 6 kts | 211° |
| 2026-05-09 14:05 | -31.31791 | -64.20966 | 1623 ft | 13 kts | 259° |
| 2026-05-09 14:05 | -31.31761 | -64.21045 | 1622 ft | 7 kts | 321° |
| 2026-05-09 14:05 | -31.31722 | -64.21054 | 1622 ft | 6 kts | 9° |
| 2026-05-09 14:06 | -31.31674 | -64.21049 | 1622 ft | 8 kts | 5° |
| 2026-05-09 14:06 | -31.31622 | -64.21080 | 1620 ft | 10 kts | 300° |
| 2026-05-09 14:06 | -31.31612 | -64.21134 | 1617 ft | 1 kts | 270° |
| 2026-05-09 14:06 | -31.31612 | -64.21155 | 1615 ft | 4 kts | 270° |
| 2026-05-09 14:07 | -31.31612 | -64.21163 | 1615 ft | 0 kts | 270° |